Team Mario Superheroes 5K Run/ Walk for Autism

Age Group Results

April 02, 2022


Results By Endurance Splits, LLC


5K Men: Top Finishers 0- 0 1-19 20-29 30-39 40-49 50-59 60-99
5K Women: Top Finishers 1-19 20-29 30-39 40-49 50-59 60-99
Bandit Men: 0- 0
Bandit Women:

5K

Top

Female Overall Winners

Place Name City Bib No Age Overall Total Time Pace
1 Faith Cruz San Juan 26 17 1 20:01.9 6:28/M
Top

Female 19 and Under

Place Name City Bib No Age Overall Total Time Pace
1 Dolores Ramirez MISSION 124 13 8 21:59.4 7:06/M
2 Torres Kida 277 17 17 25:04.6 8:05/M
3 Lindsey Cantu 240 15 23 26:26.9 8:32/M
4 Elisha Trujillo edinburg 147 12 34 29:33.9 9:32/M
5 Aveena Aveena 232 1 37 29:58.8 9:40/M
6 Krystal Lozano Ecouch Elsa High 267 1 50 32:38.7 10:32/M
7 Nancy Ruvalcada 270 1 52 32:39.9 10:32/M
8 Aveena Aveena 231 1 98 42:23.1 13:40/M
9 Aveena Aveena 234 1 99 42:24.1 13:41/M
10 Harley FUENTES La Feria 58 13 119 46:26.5 14:59/M
11 GreyStar GreyStar 244 1 128 48:46.5 15:44/M
12 GreyStar GreyStar 245 1 129 48:47.0 15:44/M
13 GreyStar GreyStar 243 1 131 49:22.0 15:56/M
14 GreyStar GreyStar 242 1 132 49:22.2 15:56/M
15 GreyStar GreyStar 241 1 136 49:40.1 16:01/M
16 Victoria Gonzalez McAllen 73 11 143 50:58.5 16:27/M
17 Amy Trevino Alton 144 18 150 52:21.9 16:54/M
18 Liliana Hernandez Edinburg 91 8 159 54:15.0 17:30/M
19 Alina Gonzalez Harlingen 77 10 160 54:36.9 17:37/M
20 Ariana Castillo Donna 22 18 169 56:41.3 18:17/M
21 Cadence Calderon Weslaco 9 16 171 57:15.8 18:28/M
22 Deisiree Rose DE JESUS EDINBURG 33 17 182 59:15.8 19:07/M
23 Ashley Guajardo La Feria 80 9 194 1:01:52.4 19:58/M
24 Adia FUENTES La Feria 56 17 203 1:05:16.9 21:04/M
Top

Female 20 to 29

Place Name City Bib No Age Overall Total Time Pace
1 Isha Guerra McAllen 83 23 19 25:14.8 8:09/M
2 Victoria Salazar edinburg 137 29 25 26:45.6 8:38/M
3 Ruby Luevano Edinburg 98 23 33 29:27.5 9:30/M
4 Sophia Moreno McAllen 111 21 36 29:42.3 9:35/M
5 Imalay Cuellar Mission 27 27 38 30:30.7 9:51/M
6 Amanda L Lozano 176 26 44 32:01.4 10:20/M
7 Alexis Exina Harlingen 46 21 47 32:30.4 10:29/M
8 Ashley Gutierrez Edinburg 85 21 62 36:01.7 11:37/M
9 Jessica Vazquez Edinburg 255 29 66 37:03.5 11:57/M
10 Rosalie Fiszman 221 20 67 37:06.3 11:58/M
11 Yvette Garza Edinburg 66 28 69 37:58.2 12:15/M
12 Maria Sanchez 177 27 73 38:21.0 12:22/M
13 Emilee Ramos 161 22 79 38:56.5 12:34/M
14 Mariela Barrera Mcallen 164 27 92 41:16.2 13:19/M
15 Liliana Flores 158 28 93 41:29.4 13:23/M
16 Kattie Guerrero 174 29 102 43:00.1 13:52/M
17 Alannis A Villarreal Edinburg 256 20 103 43:02.7 13:53/M
18 Melissa Gallegos Mission 60 29 104 43:21.6 13:59/M
19 Iris Villarreal Pharr 257 27 105 43:28.5 14:01/M
20 Lyssa Garcia Edinburg 62 25 106 43:32.3 14:03/M
21 Gabrielle Jasso 211 26 107 43:34.4 14:03/M
22 Lori Hernandez Edinburg 92 29 109 43:52.7 14:09/M
23 Bianka Ramos 166 28 118 46:26.2 14:59/M
24 Lizbeth Eapinoza Edinburg 41 23 127 48:33.5 15:40/M
25 Abigail Villarreal 178 25 134 49:35.7 16:00/M
26 Yedith Leal Weslaco 95 26 145 51:17.0 16:33/M
27 Destiney Benavidez 218 22 173 57:40.6 18:36/M
28 Valerie Diaz San Juan 38 28 175 57:43.5 18:37/M
29 Jennifer Lozano Mcallen 97 28 178 58:58.5 19:01/M
30 Fox Rendon Edinburg 163 22 187 59:27.5 19:11/M
31 Alondra Reyes 168 25 188 59:27.5 19:11/M
32 Elizabeth Westerman Mission 155 24 190 1:00:07.6 19:24/M
33 Alessi Sanchez Edinburg 253 25 197 1:02:25.6 20:08/M
34 Stephanie Cuellar Mcallen 28 27 214 1:12:17.9 23:19/M
Top

Female 30 to 39

Place Name City Bib No Age Overall Total Time Pace
1 Debra Simmons Mcallen 142 31 10 22:57.1 7:24/M
2 Angelica Quitero 190 34 27 27:05.7 8:44/M
3 Lucy Abad de Muniz McAllen 2 36 30 28:34.8 9:13/M
4 Kayla Alvarado 167 30 46 32:16.5 10:25/M
5 Jennifer Flores Edinburg 48 32 51 32:39.8 10:32/M
6 Claudia Ortiz 206 32 56 33:11.2 10:42/M
7 Lisa Calderon Weslaco 11 39 61 35:39.8 11:30/M
8 Cristina Vasquez Mission 150 35 64 36:56.4 11:55/M
9 Graciela Samaniego Alton 139 34 65 37:03.1 11:57/M
10 Esther** Ybarra 198 33 72 38:15.4 12:20/M
11 VIRIDIANA GARCIA EDINBURG 61 35 75 38:29.5 12:25/M
12 Aurora Alaniz Mercedes 4 39 77 38:39.9 12:28/M
13 Alyssa Blanco Pharr 7 36 87 39:50.5 12:51/M
14 Corina Garza Edinburg 65 31 96 42:07.9 13:35/M
15 Blanca Cerda San juan 219 39 101 42:58.7 13:52/M
16 Brenda Guerrero Alamo 84 34 112 44:40.1 14:25/M
17 Erica Ibarra Mercedes 249 37 113 45:20.8 14:38/M
18 Claudia Garcia 160 37 114 45:38.5 14:43/M
19 Edna Cantu 191 35 115 45:45.5 14:46/M
20 Lori Ann Cantu 271 37 116 46:16.9 14:56/M
21 SAVANNAH GONZALEZ EDINBURG 75 36 125 48:20.0 15:35/M
22 Erica Gongora San Juan 72 35 138 50:00.0 16:08/M
23 Janette Estrada 220 33 141 50:36.3 16:19/M
24 Abigail Ruzczak Edinburg 283 32 146 51:32.3 16:38/M
25 Heather Lang Pharr 261 33 152 52:30.9 16:56/M
26 jennifer Saenz Pharr 135 37 163 55:30.2 17:54/M
27 Linda Mion Harlingen 102 37 164 55:30.4 17:54/M
28 Sonia Diaz Mission 36 35 165 56:15.9 18:09/M
29 Abigail Roach 194 32 167 56:40.1 18:17/M
30 Yesenia Gasca Edinburg 71 34 176 57:51.5 18:40/M
31 Lucy Diaz Alton 37 37 185 59:26.9 19:11/M
32 Valerie Neeley Mcallen 159 36 186 59:27.0 19:11/M
33 Ashley Guajardo La Feria 81 36 193 1:01:52.2 19:58/M
34 Tati Mireles 170 36 196 1:02:21.3 20:07/M
35 Faustina Carrillo 171 37 198 1:02:48.3 20:16/M
36 Liana Gonzalez Harlingen 76 38 202 1:05:16.7 21:03/M
37 Marta Rosales 225 37 206 1:05:31.2 21:08/M
38 Julie Rose Hernandez Edinburg 88 30 210 1:07:47.4 21:52/M
39 Nicole Saenz Weslaco 136 38 219 1:20:13.2 25:53/M
Top

Female 40 to 49

Place Name City Bib No Age Overall Total Time Pace
1 Glenda Doster Mcallen 40 43 3 20:50.3 6:43/M
2 Claudia Flores McAllen 50 45 22 26:20.4 8:30/M
3 Ileana Trinidad Trinidad Edinburg 145 46 41 31:50.9 10:16/M
4 Annie Orozco Pharr 118 45 48 32:33.9 10:30/M
5 Veronica Cantu 200 47 53 32:41.1 10:33/M
6 Jeanette Ortiz Edinburg 215 45 57 34:01.8 10:59/M
7 Lissette Echeverria Alton 42 43 58 34:18.6 11:04/M
8 Marisa Marroquin Edinburg 203 47 71 38:14.8 12:20/M
9 Paula Salinas Mission 252 48 78 38:53.2 12:33/M
10 Blanca Acosta Mcallen 3 42 85 39:28.8 12:44/M
11 Jessica Carreon McAllen 17 41 90 40:58.1 13:13/M
12 LOURDES DE JESUS EDINBURG 34 49 91 41:09.8 13:17/M
13 Daisy Salinas 237 40 100 42:34.8 13:44/M
14 Morin Virginia 276 45 108 43:49.7 14:08/M
15 Yvette Araiza Edinburg 5 40 120 46:45.3 15:05/M
16 Jessica Fuerte Edinburg 285 40 121 46:45.6 15:05/M
17 Marissa Abad Pharr 1 46 135 49:37.8 16:01/M
18 Martha Olivarez Edinburg 117 45 142 50:45.0 16:22/M
19 Roxanne Calderon Weslaco 15 44 148 52:04.8 16:48/M
20 Melissa Silva Alamo 185 48 149 52:07.8 16:49/M
21 Lori Gonzalez 165 41 155 53:28.0 17:15/M
22 Cynthia Herrera Mission 197 46 161 54:49.5 17:41/M
23 Michele Castillo Donna 21 45 168 56:41.0 18:17/M
24 Elizabeth Perez Mission 120 48 170 56:58.6 18:23/M
25 Ruby Rodriguez 223 41 172 57:39.5 18:36/M
26 Zulema Garcia Edinburg 63 47 177 58:03.1 18:44/M
27 ISABEL GARZA Edinburg 67 45 179 59:05.9 19:04/M
28 Celina Cavazos Mission, Texas 23 44 183 59:26.1 19:10/M
29 India FUENTES La Feria 54 45 204 1:05:17.8 21:04/M
30 Sue De Jesus Edinburg 29 43 209 1:07:37.8 21:49/M
Top

Female 50 to 59

Place Name City Bib No Age Overall Total Time Pace
1 Joanne Morin Brownsville 112 52 55 32:47.5 10:35/M
2 Esther Silvas Mcallen 141 50 63 36:08.5 11:40/M
3 Norma McCormick 265 51 133 49:35.3 16:00/M
4 Flor E. Koll McAllen 94 54 137 49:43.9 16:03/M
5 Laura Newton Mission 250 52 144 51:12.9 16:31/M
6 Maria Arjona 275 53 184 59:26.8 19:11/M
7 Marissa Wallace Mercedes 153 53 200 1:03:20.0 20:26/M
8 Cynthia Rios Weslaco 129 57 207 1:06:14.6 21:22/M
Top

Female 60 and Over

Place Name City Bib No Age Overall Total Time Pace
1 Irma Guerra McAllen 82 62 26 27:03.7 8:44/M
2 Norma Farias Mission 47 61 139 50:00.2 16:08/M
3 Cindy freeman McAllen 52 64 180 59:06.6 19:04/M
4 Maria Fuentes La Feria 53 66 201 1:03:53.3 20:37/M
5 Linda Eslao Edinburg 45 62 211 1:07:49.7 21:53/M
6 Guadalupe Robles Harlingen 131 68 216 1:19:56.4 25:47/M
Top

Male Overall Winners

Place Name City Bib No Age Overall Total Time Pace
1 Elias Moran Edinburg 109 40 2 20:49.3 6:43/M
Top

Male No Age Provided

Place Name City Bib No Age Overall Total Time Pace
1 PJ Ehimika TX 43 0 31 29:10.5 9:25/M
Top

Male 19 and Under

Place Name City Bib No Age Overall Total Time Pace
1 Anthony Trujillo Edinburg 148 15 4 21:16.8 6:52/M
2 Gabriel Trujillo Edinburg 146 13 6 21:41.6 7:00/M
3 Jacob Gonzalez Edinburg 79 13 9 22:32.6 7:16/M
4 Uriel Mendoza McAllen 101 11 21 26:00.0 8:23/M
5 Ernesto Morado Edinburg 107 16 32 29:22.4 9:29/M
6 Caleb Calderon Weslaco 10 12 54 32:43.6 10:33/M
7 Noah Calderon Mercedes 14 14 76 38:38.1 12:28/M
8 Alberto Ybarra 266 1 88 40:35.5 13:06/M
9 Gavin FUENTES La Feria 57 16 89 40:40.9 13:07/M
10 Thiago De Jesus Edinburg 31 10 156 53:46.0 17:21/M
11 ANDREE DE JESUS EDINBURG 35 15 157 53:52.5 17:23/M
12 Ethan John Wallace Mercedes 154 15 199 1:03:17.8 20:25/M
13 Diego De Jesus Edinburg 30 15 208 1:07:30.0 21:46/M
14 Julian Hernandez Edinburg 90 9 212 1:07:50.9 21:53/M
15 Omar Gonzalez McAllen 74 11 213 1:08:35.2 22:08/M
16 Vincent Mion Harlingen 104 10 215 1:19:12.8 25:33/M
Top

Male 20 to 29

Place Name City Bib No Age Overall Total Time Pace
1 Eleazar Coronado Alamo 25 23 15 24:49.9 8:01/M
2 Manuel Vera 189 28 16 24:54.3 8:02/M
3 Emilio Morado Edinburg 108 23 24 26:29.4 8:33/M
4 Carlos Martinez hidalgo 99 26 35 29:35.1 9:33/M
5 Adan Gallegos Mission 59 28 39 30:41.7 9:54/M
6 Cristopher Perez Edinburg 121 26 45 32:05.1 10:21/M
7 Humberto Ramos Brownsville 125 27 82 39:07.8 12:37/M
8 Hector Sanchez Mcallen 140 25 86 39:42.6 12:49/M
9 Anthony Carillo 289 26 124 47:38.8 15:22/M
10 Jonathan Calzada Pharr 284 29 147 52:00.8 16:47/M
11 Joe Martinez Weslaco 286 22 153 52:44.1 17:01/M
12 Jadon Mora Mission 106 21 189 1:00:07.3 19:24/M
Top

Male 30 to 39

Place Name City Bib No Age Overall Total Time Pace
1 Jon Escobedo McAllen 44 30 7 21:45.0 7:01/M
2 Luis Cota Rio Grande City 202 30 14 24:46.0 7:59/M
3 Sergio A Salinas 184 38 18 25:13.4 8:08/M
4 Lalo Contreras 175 32 59 35:05.4 11:19/M
5 Luis Rodriguez 236 35 60 35:39.6 11:30/M
6 Erik Ramirez Donna 122 30 68 37:20.2 12:03/M
7 edgar carranza edinburg 16 33 70 38:08.7 12:18/M
8 Heron Rosales Edinburg 134 37 74 38:23.2 12:23/M
9 Adrian Farias Weslaco 248 39 81 39:07.5 12:37/M
10 Rene Garza Jr Weslaco 69 38 84 39:27.6 12:44/M
11 Ruben Nieto 172 35 95 42:02.1 13:34/M
12 Abraham Cantu 239 36 117 46:20.7 14:57/M
13 Patrick Pattan 287 32 130 48:49.7 15:45/M
14 Luis Hernandez Edinburg 89 30 158 54:12.2 17:29/M
15 Michael Mion Harlingen 103 38 162 55:29.0 17:54/M
16 Jonathan Gonzalez 201 33 166 56:39.2 18:17/M
17 Jacob Gasca Edinburg 70 35 174 57:42.8 18:37/M
18 Jim De Jesus Edinburg 32 39 181 59:14.6 19:07/M
19 Robert Neeley Mcallen 115 38 195 1:02:06.0 20:02/M
20 Ricardo Garcia 222 39 205 1:05:30.5 21:08/M
Top

Male 40 to 49

Place Name City Bib No Age Overall Total Time Pace
1 Miguel Mendoza McAllen 100 41 13 24:12.7 7:49/M
2 David Rodriguez Alton 133 44 20 25:48.7 8:20/M
3 Sergio Garza Rio Bravo 64 46 29 28:26.8 9:11/M
4 Ivan Montoya McAllen 105 43 40 31:41.3 10:13/M
5 Juan Pablo Calderon Mercedes 13 42 83 39:08.4 12:38/M
6 Arnulfo Perez Lytle 119 42 94 41:48.3 13:29/M
7 Isaac Vasquez Mission 151 41 97 42:16.6 13:38/M
8 Adgar Preciado 238 46 110 43:54.3 14:10/M
9 Oscar FUENTES La Feria 55 44 122 46:47.4 15:06/M
10 Jose Calderon Weslaco 12 40 123 47:13.9 15:14/M
11 Yohans Cabezuela EDINBURG 8 41 126 48:20.2 15:36/M
12 Richard Wilson Weslaco 156 43 140 50:29.3 16:17/M
13 Ricardo Lopez 264 47 191 1:00:07.8 19:24/M
14 Peter Fontejon Weslaco 51 43 217 1:20:13.0 25:53/M
Top

Male 50 to 59

Place Name City Bib No Age Overall Total Time Pace
1 Jaime Gonzalez Edinburg 78 58 11 23:32.0 7:36/M
2 Hector Velarde Edinburg 186 54 49 32:34.8 10:31/M
3 Stephan Lang 262 53 151 52:30.2 16:56/M
4 Jose Chapa 288 53 154 52:55.2 17:04/M
5 Oscar Rios Jr. Weslaco 130 56 192 1:00:08.8 19:24/M
Top

Male 60 and Over

Place Name City Bib No Age Overall Total Time Pace
1 Jorge Navarro Pharr 113 60 5 21:21.3 6:53/M
2 Joe Ramirez Pearsall 123 70 12 24:03.3 7:46/M
3 Charlie De la rosa Edinburg 205 60 28 27:40.4 8:56/M
4 Jose Garza Edinburg 68 65 42 31:56.9 10:18/M
5 Pete Doria McAllen 39 60 43 32:01.2 10:20/M
6 Fernando Lara 199 68 80 38:58.0 12:34/M
7 Joseph O’Gwynn Harlingen 116 63 111 44:06.6 14:14/M
8 Teodolo Robles Harlingen 132 70 218 1:20:13.0 25:53/M
 

Bandit

Top

Male No Age Provided

Place Name City Bib No Age Overall Total Time Pace
DQ Unknown Chip: 0038f55e1 90002 DQ 19:13.0 6:12/M